createdAt,value
2022-10-23T00:02:07.979Z,9.44
2022-10-23T00:04:54.253Z,9.30
2022-10-23T00:07:41.110Z,9.45
2022-10-23T00:10:14.031Z,9.63
2022-10-23T00:12:46.206Z,9.65
2022-10-23T00:15:18.670Z,9.53
2022-10-23T00:18:01.346Z,9.53
2022-10-23T00:20:45.162Z,9.59
2022-10-23T00:23:17.569Z,9.41
2022-10-23T00:25:49.683Z,9.27
2022-10-23T00:28:28.258Z,9.16
2022-10-23T00:31:08.379Z,9.06
2022-10-23T00:33:52.013Z,8.98
2022-10-23T00:36:23.843Z,8.85
2022-10-23T00:38:51.351Z,8.76
2022-10-23T00:41:30.882Z,8.64
2022-10-23T00:44:12.595Z,8.54
2022-10-23T00:46:47.664Z,8.37
2022-10-23T00:49:25.563Z,8.32
2022-10-23T00:52:02.058Z,8.24
2022-10-23T00:54:46.789Z,8.13
2022-10-23T01:00:14.556Z,8.01
2022-10-23T01:02:53.548Z,7.83
2022-10-23T01:08:42.782Z,7.78
2022-10-23T01:11:15.110Z,7.81
2022-10-23T01:14:05.579Z,7.73
2022-10-23T01:17:02.301Z,7.71
2022-10-23T01:19:59.444Z,7.70
2022-10-23T01:22:48.965Z,7.66
2022-10-23T01:25:53.425Z,7.66
2022-10-23T01:28:49.413Z,7.74
2022-10-23T01:31:31.934Z,7.75
2022-10-23T01:34:15.247Z,7.71
2022-10-23T01:37:00.099Z,7.72
2022-10-23T01:39:34.138Z,7.69
2022-10-23T01:42:28.440Z,7.71
2022-10-23T01:45:09.002Z,7.69
2022-10-23T01:47:56.608Z,7.80
2022-10-23T01:50:42.130Z,8.00
2022-10-23T01:53:26.955Z,8.17
2022-10-23T01:56:06.340Z,8.30
2022-10-23T01:58:38.040Z,8.41
2022-10-23T02:01:17.720Z,8.30
2022-10-23T02:06:40.539Z,8.02
2022-10-23T02:09:07.955Z,7.95
2022-10-23T02:11:54.773Z,7.89
2022-10-23T02:14:57.584Z,7.76
2022-10-23T02:17:51.587Z,7.67
2022-10-23T02:20:36.011Z,7.67
2022-10-23T02:23:27.800Z,7.60
2022-10-23T02:26:08.634Z,7.43
2022-10-23T02:29:02.074Z,7.28
2022-10-23T02:31:39.768Z,7.20
2022-10-23T02:34:22.734Z,7.12
2022-10-23T02:36:59.363Z,7.03
2022-10-23T02:39:47.943Z,7.03
2022-10-23T02:42:49.078Z,7.17
2022-10-23T02:46:06.618Z,7.41
2022-10-23T02:48:53.118Z,7.57
2022-10-23T02:51:39.123Z,7.68
2022-10-23T02:54:26.089Z,7.61
2022-10-23T02:57:25.214Z,7.43
2022-10-23T03:00:14.389Z,7.26
2022-10-23T03:02:57.215Z,7.20
2022-10-23T03:05:37.722Z,7.24
2022-10-23T03:08:08.322Z,7.19
2022-10-23T03:10:49.686Z,7.10
2022-10-23T03:13:25.079Z,6.95
2022-10-23T03:16:03.573Z,6.81
2022-10-23T03:18:47.410Z,6.73
2022-10-23T03:21:22.973Z,6.62
2022-10-23T03:23:55.886Z,6.52
2022-10-23T03:26:42.665Z,6.42
2022-10-23T03:29:24.449Z,6.37
2022-10-23T03:32:05.652Z,6.26
2022-10-23T03:34:59.023Z,6.35
2022-10-23T03:37:38.927Z,6.29
2022-10-23T03:40:06.389Z,6.40
2022-10-23T03:42:46.345Z,6.45
2022-10-23T03:45:32.707Z,6.58
2022-10-23T03:48:00.028Z,6.54
2022-10-23T03:50:38.981Z,6.51
2022-10-23T03:53:22.068Z,6.45
2022-10-23T03:55:56.915Z,6.42
2022-10-23T03:58:34.709Z,6.43
2022-10-23T04:01:16.938Z,6.47
2022-10-23T04:03:56.143Z,6.57
2022-10-23T04:06:27.009Z,6.65
2022-10-23T04:09:05.566Z,6.73
2022-10-23T04:11:37.005Z,6.73
2022-10-23T04:14:09.382Z,6.79
2022-10-23T04:16:55.663Z,6.79
2022-10-23T04:19:39.795Z,6.80
2022-10-23T04:22:16.266Z,6.80
2022-10-23T04:24:58.008Z,6.82
2022-10-23T04:27:37.146Z,6.80
2022-10-23T04:30:09.576Z,6.79
2022-10-23T04:32:49.637Z,6.79
2022-10-23T04:35:18.622Z,6.73
2022-10-23T04:37:46.545Z,6.72
2022-10-23T04:40:16.156Z,6.71
2022-10-23T04:43:00.245Z,6.65
2022-10-23T04:45:42.072Z,6.71
2022-10-23T04:48:29.203Z,6.72
2022-10-23T04:51:14.612Z,6.71
2022-10-23T04:54:01.196Z,6.56
2022-10-23T04:56:43.018Z,6.60
2022-10-23T04:59:25.927Z,6.66
2022-10-23T05:02:12.877Z,6.58
2022-10-23T05:04:53.379Z,6.47
2022-10-23T05:07:41.215Z,6.41
2022-10-23T05:10:45.759Z,6.31
2022-10-23T05:13:23.793Z,6.22
2022-10-23T05:16:00.057Z,6.20
2022-10-23T05:18:45.674Z,6.14
2022-10-23T05:21:24.022Z,6.11
2022-10-23T05:23:54.614Z,6.13
2022-10-23T05:26:25.346Z,6.14
2022-10-23T05:28:58.937Z,6.18
2022-10-23T05:31:27.878Z,6.24
2022-10-23T05:34:17.499Z,6.23
2022-10-23T05:37:07.976Z,6.29
2022-10-23T05:39:55.119Z,6.34
2022-10-23T05:42:36.103Z,6.38
2022-10-23T05:45:22.905Z,6.48
2022-10-23T05:48:54.134Z,6.57
2022-10-23T05:52:09.621Z,6.69
2022-10-23T05:55:02.471Z,6.85
2022-10-23T05:57:59.319Z,6.95
2022-10-23T06:01:18.602Z,7.09
2022-10-23T06:04:06.624Z,7.22
2022-10-23T06:07:23.068Z,7.36
2022-10-23T06:10:12.271Z,7.37
2022-10-23T06:12:57.971Z,7.46
2022-10-23T06:15:30.237Z,7.46
2022-10-23T06:18:19.014Z,7.54
2022-10-23T06:21:00.583Z,7.64
2022-10-23T06:23:36.829Z,7.67
2022-10-23T06:26:46.233Z,7.77
2022-10-23T06:29:27.587Z,7.86
2022-10-23T06:32:00.559Z,7.84
2022-10-23T06:34:41.966Z,7.82
2022-10-23T06:37:26.760Z,7.93
2022-10-23T06:40:15.588Z,7.95
2022-10-23T06:43:22.317Z,8.05
2022-10-23T06:46:15.036Z,8.19
2022-10-23T06:49:19.605Z,8.21
2022-10-23T06:52:18.397Z,8.25
2022-10-23T06:55:05.636Z,8.34
2022-10-23T06:57:44.498Z,8.35
2022-10-23T07:00:14.953Z,8.56
2022-10-23T07:02:55.003Z,8.54
2022-10-23T07:05:31.130Z,8.58
2022-10-23T07:07:58.478Z,8.74
2022-10-23T07:10:50.807Z,8.78
2022-10-23T07:13:36.970Z,8.97
2022-10-23T07:16:32.777Z,9.02
2022-10-23T07:19:12.139Z,9.07
2022-10-23T07:22:16.113Z,9.18
2022-10-23T07:25:15.629Z,9.27
2022-10-23T07:28:01.878Z,9.35
2022-10-23T07:30:41.163Z,9.32
2022-10-23T07:33:29.558Z,9.39
2022-10-23T07:36:28.046Z,9.51
2022-10-23T07:38:58.611Z,9.63
2022-10-23T07:41:31.397Z,9.77
2022-10-23T07:44:00.801Z,9.94
2022-10-23T07:46:27.876Z,10.09
2022-10-23T07:49:10.651Z,10.16
2022-10-23T07:51:50.533Z,10.27
2022-10-23T07:54:32.814Z,10.39
2022-10-23T07:57:07.386Z,10.51
2022-10-23T07:59:55.433Z,10.65
2022-10-23T08:02:24.049Z,10.59
2022-10-23T08:05:00.342Z,10.65
2022-10-23T08:07:47.457Z,10.83
2022-10-23T08:10:14.556Z,10.91
2022-10-23T08:12:57.794Z,11.06
2022-10-23T08:15:59.316Z,11.13
2022-10-23T08:19:16.205Z,11.33
2022-10-23T08:21:47.833Z,11.27
2022-10-23T08:24:31.620Z,11.32
2022-10-23T08:27:01.136Z,11.48
2022-10-23T08:29:42.114Z,11.40
2022-10-23T08:32:28.379Z,11.50
2022-10-23T08:35:11.694Z,11.57
2022-10-23T08:37:54.656Z,11.57
2022-10-23T08:40:25.356Z,11.70
2022-10-23T08:43:27.534Z,11.90
2022-10-23T08:46:18.029Z,12.06
2022-10-23T08:49:30.993Z,12.08
2022-10-23T08:52:40.397Z,12.18
2022-10-23T08:55:38.660Z,12.27
2022-10-23T08:58:37.346Z,12.56
2022-10-23T09:01:33.232Z,12.69
2022-10-23T09:04:06.886Z,12.82
2022-10-23T09:06:52.186Z,12.98
2022-10-23T09:09:58.861Z,13.03
2022-10-23T09:12:46.991Z,13.13
2022-10-23T09:15:50.436Z,13.19
2022-10-23T09:18:33.279Z,13.42
2022-10-23T09:21:12.110Z,13.57
2022-10-23T09:23:41.665Z,13.64
2022-10-23T09:26:22.476Z,13.65
2022-10-23T09:29:08.091Z,13.79
2022-10-23T09:31:53.771Z,13.85
2022-10-23T09:34:39.261Z,13.93
2022-10-23T09:37:37.659Z,14.01
2022-10-23T09:40:29.082Z,14.14
2022-10-23T09:43:14.420Z,14.31
2022-10-23T09:46:11.872Z,14.47
2022-10-23T09:49:03.602Z,14.52
2022-10-23T09:52:19.069Z,14.61
2022-10-23T09:55:19.002Z,14.74
2022-10-23T09:57:56.026Z,14.84
2022-10-23T10:00:40.472Z,14.97
2022-10-23T10:03:26.155Z,15.13
2022-10-23T10:06:34.063Z,15.25
2022-10-23T10:09:29.443Z,15.35
2022-10-23T10:12:37.982Z,15.45
2022-10-23T10:15:35.710Z,15.47
2022-10-23T10:19:07.414Z,15.59
2022-10-23T10:21:54.594Z,15.80
2022-10-23T10:24:55.628Z,15.60
2022-10-23T10:28:03.738Z,15.80
2022-10-23T10:31:11.333Z,15.99
2022-10-23T10:34:18.457Z,16.06
2022-10-23T10:36:58.039Z,16.18
2022-10-23T10:39:58.031Z,16.26
2022-10-23T10:42:58.417Z,16.27
2022-10-23T10:45:57.472Z,16.36
2022-10-23T10:48:50.221Z,16.42
2022-10-23T10:52:00.061Z,16.54
2022-10-23T10:54:43.223Z,16.76
2022-10-23T10:57:44.465Z,16.82
2022-10-23T11:00:28.538Z,16.91
2022-10-23T11:03:37.577Z,17.05
2022-10-23T11:06:28.542Z,17.22
2022-10-23T11:09:19.864Z,17.29
2022-10-23T11:11:58.870Z,17.34
2022-10-23T11:14:39.350Z,17.29
2022-10-23T11:17:24.272Z,17.41
2022-10-23T11:20:34.883Z,17.51
2022-10-23T11:23:55.883Z,17.68
2022-10-23T11:27:06.533Z,17.71
2022-10-23T11:29:50.420Z,17.75
2022-10-23T11:32:40.221Z,17.76
2022-10-23T11:35:45.991Z,17.81
2022-10-23T11:38:40.737Z,17.68
2022-10-23T11:41:33.969Z,17.82
2022-10-23T11:44:42.109Z,17.89
2022-10-23T11:47:39.240Z,17.82
2022-10-23T11:50:24.216Z,17.90
2022-10-23T11:53:21.236Z,17.98
2022-10-23T11:56:36.468Z,17.96
2022-10-23T11:59:43.049Z,18.11
2022-10-23T12:02:45.299Z,18.16
2022-10-23T12:05:41.655Z,18.11
2022-10-23T12:08:43.489Z,18.22
2022-10-23T12:11:42.098Z,18.31
2022-10-23T12:14:46.072Z,18.23
2022-10-23T12:17:35.917Z,18.31
2022-10-23T12:20:50.129Z,18.31
2022-10-23T12:23:50.121Z,18.16
2022-10-23T12:26:42.701Z,18.37
2022-10-23T12:29:43.222Z,18.48
2022-10-23T12:32:49.084Z,18.51
2022-10-23T12:35:57.313Z,18.48
2022-10-23T12:38:38.554Z,18.64
2022-10-23T12:41:35.859Z,18.41
2022-10-23T12:44:13.999Z,18.54
2022-10-23T12:46:54.407Z,18.73
2022-10-23T12:49:39.148Z,18.71
2022-10-23T12:52:41.751Z,18.74
2022-10-23T12:55:32.243Z,18.75
2022-10-23T12:58:18.439Z,18.65
2022-10-23T13:01:02.076Z,18.76
2022-10-23T13:03:46.459Z,18.85
2022-10-23T13:06:27.983Z,18.92
2022-10-23T13:09:12.795Z,18.83
2022-10-23T13:12:00.752Z,18.74
2022-10-23T13:15:03.513Z,18.22
2022-10-23T13:18:04.230Z,18.11
2022-10-23T13:20:43.237Z,17.86
2022-10-23T13:23:43.638Z,17.69
2022-10-23T13:26:49.160Z,17.74
2022-10-23T13:29:37.590Z,17.67
2022-10-23T13:32:36.359Z,17.70
2022-10-23T13:35:37.848Z,17.51
2022-10-23T13:38:27.482Z,17.34
2022-10-23T13:41:12.623Z,17.30
2022-10-23T13:43:51.172Z,17.16
2022-10-23T13:46:30.110Z,17.05
2022-10-23T13:49:09.141Z,17.03
2022-10-23T13:51:49.838Z,17.13
2022-10-23T13:54:33.926Z,16.98
2022-10-23T13:57:17.961Z,16.93
2022-10-23T13:59:58.514Z,16.88
2022-10-23T14:02:45.138Z,16.96
2022-10-23T14:05:26.359Z,16.87
2022-10-23T14:08:12.931Z,16.97
2022-10-23T14:10:51.292Z,16.77
2022-10-23T14:13:32.339Z,16.79
2022-10-23T14:16:15.863Z,16.74
2022-10-23T14:18:56.814Z,16.73
2022-10-23T14:21:35.637Z,16.56
2022-10-23T14:24:10.838Z,16.52
2022-10-23T14:26:49.037Z,16.54
2022-10-23T14:29:24.288Z,16.49
2022-10-23T14:32:04.581Z,16.54
2022-10-23T14:34:49.213Z,16.39
2022-10-23T14:37:35.443Z,16.45
2022-10-23T14:40:11.777Z,16.43
2022-10-23T14:42:52.201Z,16.31
2022-10-23T14:45:30.142Z,16.18
2022-10-23T14:48:16.815Z,16.28
2022-10-23T14:50:56.341Z,16.16
2022-10-23T14:53:47.920Z,16.12
2022-10-23T14:56:20.666Z,16.03
2022-10-23T14:59:09.275Z,16.06
2022-10-23T15:01:55.585Z,16.07
2022-10-23T15:04:33.924Z,15.99
2022-10-23T15:07:20.942Z,15.89
2022-10-23T15:10:09.007Z,15.92
2022-10-23T15:12:50.336Z,15.85
2022-10-23T15:15:28.949Z,15.93
2022-10-23T15:18:00.865Z,15.90
2022-10-23T15:20:33.113Z,15.83
2022-10-23T15:23:13.156Z,15.81
2022-10-23T15:25:56.122Z,15.73
2022-10-23T15:28:27.385Z,15.76
2022-10-23T15:31:05.890Z,15.67
2022-10-23T15:33:38.999Z,15.72
2022-10-23T15:36:19.478Z,15.55
2022-10-23T15:39:03.065Z,15.54
2022-10-23T15:41:41.919Z,15.57
2022-10-23T15:44:16.185Z,15.57
2022-10-23T15:46:51.767Z,15.57
2022-10-23T15:49:34.987Z,15.54
2022-10-23T15:52:15.477Z,15.53
2022-10-23T15:54:55.975Z,15.51
2022-10-23T15:57:41.727Z,15.50
2022-10-23T16:00:25.509Z,15.41
2022-10-23T16:03:06.927Z,15.30
2022-10-23T16:05:51.004Z,15.30
2022-10-23T16:08:24.165Z,15.27
2022-10-23T16:11:04.508Z,15.26
2022-10-23T16:13:39.763Z,15.24
2022-10-23T16:16:24.458Z,15.21
2022-10-23T16:19:10.239Z,15.23
2022-10-23T16:21:53.209Z,15.28
2022-10-23T16:24:30.850Z,15.10
2022-10-23T16:27:07.625Z,14.98
2022-10-23T16:29:46.248Z,15.05
2022-10-23T16:32:32.095Z,15.08
2022-10-23T16:35:08.743Z,15.04
2022-10-23T16:38:09.643Z,15.04
2022-10-23T16:41:00.602Z,15.02
2022-10-23T16:43:49.249Z,14.95
2022-10-23T16:46:52.009Z,14.94
2022-10-23T16:49:32.225Z,14.87
2022-10-23T16:52:15.697Z,14.88
2022-10-23T16:54:57.034Z,14.88
2022-10-23T16:57:38.115Z,14.93
2022-10-23T17:00:19.205Z,14.96
2022-10-23T17:02:54.265Z,14.90
2022-10-23T17:05:28.411Z,14.89
2022-10-23T17:08:11.729Z,14.87
2022-10-23T17:10:40.784Z,14.80
2022-10-23T17:13:28.500Z,14.83
2022-10-23T17:16:28.075Z,14.86
2022-10-23T17:19:20.526Z,14.85
2022-10-23T17:22:10.576Z,14.88
2022-10-23T17:24:53.155Z,14.95
2022-10-23T17:27:31.970Z,15.01
2022-10-23T17:30:12.938Z,14.98
2022-10-23T17:32:59.504Z,14.96
2022-10-23T17:35:39.855Z,14.98
2022-10-23T17:38:23.772Z,15.02
2022-10-23T17:41:09.124Z,14.97
2022-10-23T17:43:45.736Z,14.89
2022-10-23T17:46:23.343Z,15.02
2022-10-23T17:51:42.991Z,15.10
2022-10-23T17:54:29.390Z,15.10
2022-10-23T17:57:18.105Z,15.11
2022-10-23T18:00:06.855Z,15.04
2022-10-23T18:02:47.075Z,15.00
2022-10-23T18:05:30.048Z,14.95
2022-10-23T18:08:10.489Z,14.98
2022-10-23T18:10:51.023Z,15.02
2022-10-23T18:13:31.692Z,15.05
2022-10-23T18:16:11.708Z,15.02
2022-10-23T18:18:52.909Z,15.03
2022-10-23T18:21:35.844Z,14.97
2022-10-23T18:24:14.613Z,15.04
2022-10-23T18:26:53.331Z,15.04
2022-10-23T18:29:38.181Z,15.00
2022-10-23T18:32:23.909Z,14.89
2022-10-23T18:35:05.139Z,14.96
2022-10-23T18:37:39.007Z,14.97
2022-10-23T18:40:19.456Z,14.98
2022-10-23T18:43:09.096Z,14.99
2022-10-23T18:45:54.143Z,15.03
2022-10-23T18:48:38.413Z,14.94
2022-10-23T18:51:36.697Z,14.95
2022-10-23T18:54:13.610Z,14.88
2022-10-23T18:56:53.525Z,14.90
2022-10-23T18:59:36.416Z,14.87
2022-10-23T19:02:18.020Z,14.84
2022-10-23T19:05:02.033Z,14.84
2022-10-23T19:07:46.445Z,14.80
2022-10-23T19:10:39.150Z,14.78
2022-10-23T19:13:11.645Z,14.83
2022-10-23T19:16:02.869Z,14.82
2022-10-23T19:18:40.349Z,15.01
2022-10-23T19:21:25.277Z,15.01
2022-10-23T19:24:04.394Z,14.92
2022-10-23T19:26:48.073Z,14.86
2022-10-23T19:29:38.018Z,14.86
2022-10-23T19:32:16.845Z,14.90
2022-10-23T19:34:59.883Z,14.82
2022-10-23T19:37:41.830Z,14.96
2022-10-23T19:40:20.040Z,14.90
2022-10-23T19:43:03.373Z,14.92
2022-10-23T19:45:41.390Z,14.83
2022-10-23T19:48:19.248Z,14.88
2022-10-23T19:51:12.112Z,14.89
2022-10-23T19:56:36.111Z,14.94
2022-10-23T19:59:22.871Z,14.90
2022-10-23T20:02:03.383Z,14.88
2022-10-23T20:04:44.422Z,14.87
2022-10-23T20:07:30.530Z,14.82
2022-10-23T20:10:14.372Z,14.79
2022-10-23T20:12:56.873Z,14.73
2022-10-23T20:15:46.539Z,14.70
2022-10-23T20:18:22.157Z,14.67
2022-10-23T20:21:05.047Z,14.68
2022-10-23T20:23:46.089Z,14.62
2022-10-23T20:26:32.776Z,14.62
2022-10-23T20:29:07.696Z,14.59
2022-10-23T20:31:46.785Z,14.58
2022-10-23T20:34:35.443Z,14.54
2022-10-23T20:37:19.414Z,14.57
2022-10-23T20:40:02.339Z,14.60
2022-10-23T20:42:45.696Z,14.60
2022-10-23T20:45:21.045Z,14.62
2022-10-23T20:48:02.532Z,14.60
2022-10-23T20:50:45.250Z,14.57
2022-10-23T20:53:29.385Z,14.51
2022-10-23T20:56:07.061Z,14.54
2022-10-23T20:58:55.409Z,14.65
2022-10-23T21:01:31.178Z,14.66
2022-10-23T21:04:09.753Z,14.64
2022-10-23T21:07:08.454Z,14.62
2022-10-23T21:09:48.101Z,14.56
2022-10-23T21:12:31.174Z,14.52
2022-10-23T21:15:14.347Z,14.41
2022-10-23T21:17:56.858Z,14.28
2022-10-23T21:20:42.462Z,14.28
2022-10-23T21:23:18.079Z,14.22
2022-10-23T21:26:02.201Z,14.19
2022-10-23T21:28:50.742Z,14.19
2022-10-23T21:31:54.518Z,14.18
2022-10-23T21:34:35.139Z,14.17
2022-10-23T21:37:15.158Z,14.10
2022-10-23T21:40:00.445Z,14.08
2022-10-23T21:42:41.494Z,14.04
2022-10-23T21:45:17.657Z,14.01
2022-10-23T21:47:49.009Z,14.02
2022-10-23T21:50:27.518Z,14.04
2022-10-23T21:53:10.985Z,14.13
2022-10-23T21:55:56.992Z,13.99
2022-10-23T21:58:40.763Z,13.88
2022-10-23T22:01:24.543Z,13.86
2022-10-23T22:04:05.092Z,13.83
2022-10-23T22:06:49.938Z,13.74
2022-10-23T22:09:23.734Z,13.76
2022-10-23T22:11:57.296Z,13.77
2022-10-23T22:14:37.114Z,13.76
2022-10-23T22:17:13.160Z,13.76
2022-10-23T22:19:50.739Z,13.82
2022-10-23T22:22:36.743Z,13.83
2022-10-23T22:25:14.921Z,13.79
2022-10-23T22:27:54.720Z,13.92
2022-10-23T22:30:40.597Z,13.87
2022-10-23T22:33:23.693Z,13.79
2022-10-23T22:36:14.080Z,13.77
2022-10-23T22:38:54.185Z,13.73
2022-10-23T22:41:43.661Z,13.74
2022-10-23T22:44:20.306Z,13.69
2022-10-23T22:46:55.192Z,13.68
2022-10-23T22:49:27.412Z,13.61
2022-10-23T22:52:09.040Z,13.64
2022-10-23T22:54:48.144Z,13.63
2022-10-23T22:57:21.684Z,13.66
2022-10-23T23:00:14.862Z,13.72
2022-10-23T23:03:01.231Z,13.78
2022-10-23T23:05:33.238Z,13.77
2022-10-23T23:08:16.941Z,13.71
2022-10-23T23:10:54.835Z,13.75
2022-10-23T23:13:38.184Z,13.68
2022-10-23T23:16:39.605Z,13.70
2022-10-23T23:19:27.421Z,13.63
2022-10-23T23:22:08.560Z,13.60
2022-10-23T23:24:50.712Z,13.58
2022-10-23T23:27:28.003Z,13.57
2022-10-23T23:30:07.940Z,13.49
2022-10-23T23:32:44.774Z,13.41
2022-10-23T23:35:26.603Z,13.41
2022-10-23T23:38:09.172Z,13.34
2022-10-23T23:40:55.116Z,13.22
2022-10-23T23:43:40.053Z,13.22
2022-10-23T23:46:21.932Z,13.29
2022-10-23T23:48:53.782Z,13.29
2022-10-23T23:51:37.354Z,13.32
2022-10-23T23:54:25.586Z,13.28
2022-10-23T23:57:07.041Z,13.21
2022-10-23T23:59:55.159Z,13.16
